sensor_id;sensor_type;location;lat;lon;timestamp;P1;durP1;ratioP1;P2;durP2;ratioP2
24619;SDS011;12763;55.802;37.404;2023-12-04T00:01:25;12.07;;;5.43;;
24619;SDS011;12763;55.802;37.404;2023-12-04T00:03:51;11.05;;;5.20;;
24619;SDS011;12763;55.802;37.404;2023-12-04T00:06:18;11.15;;;5.45;;
24619;SDS011;12763;55.802;37.404;2023-12-04T00:08:44;13.75;;;4.75;;
24619;SDS011;12763;55.802;37.404;2023-12-04T00:11:10;13.57;;;4.72;;
24619;SDS011;12763;55.802;37.404;2023-12-04T00:13:36;14.00;;;5.68;;
24619;SDS011;12763;55.802;37.404;2023-12-04T00:16:02;12.98;;;4.70;;
24619;SDS011;12763;55.802;37.404;2023-12-04T00:18:29;12.90;;;5.03;;
24619;SDS011;12763;55.802;37.404;2023-12-04T00:20:54;12.95;;;5.35;;
24619;SDS011;12763;55.802;37.404;2023-12-04T00:23:20;11.73;;;5.30;;
24619;SDS011;12763;55.802;37.404;2023-12-04T00:25:46;18.45;;;5.70;;
24619;SDS011;12763;55.802;37.404;2023-12-04T00:28:12;12.68;;;5.03;;
24619;SDS011;12763;55.802;37.404;2023-12-04T00:30:38;12.05;;;4.47;;
24619;SDS011;12763;55.802;37.404;2023-12-04T00:33:04;9.27;;;4.20;;
24619;SDS011;12763;55.802;37.404;2023-12-04T00:35:30;13.82;;;4.57;;
24619;SDS011;12763;55.802;37.404;2023-12-04T00:37:56;12.15;;;4.25;;
24619;SDS011;12763;55.802;37.404;2023-12-04T00:40:22;14.02;;;5.07;;
24619;SDS011;12763;55.802;37.404;2023-12-04T00:42:48;17.60;;;6.03;;
24619;SDS011;12763;55.802;37.404;2023-12-04T00:45:14;12.75;;;5.22;;
24619;SDS011;12763;55.802;37.404;2023-12-04T00:47:41;12.38;;;5.07;;
24619;SDS011;12763;55.802;37.404;2023-12-04T00:50:07;12.75;;;4.22;;
24619;SDS011;12763;55.802;37.404;2023-12-04T00:52:33;13.00;;;4.97;;
24619;SDS011;12763;55.802;37.404;2023-12-04T00:54:59;10.93;;;5.28;;
24619;SDS011;12763;55.802;37.404;2023-12-04T00:57:25;17.55;;;5.80;;
24619;SDS011;12763;55.802;37.404;2023-12-04T00:59:51;13.77;;;5.57;;
24619;SDS011;12763;55.802;37.404;2023-12-04T01:02:17;12.88;;;4.38;;
24619;SDS011;12763;55.802;37.404;2023-12-04T01:04:43;9.38;;;4.45;;
24619;SDS011;12763;55.802;37.404;2023-12-04T01:07:09;13.57;;;4.97;;
24619;SDS011;12763;55.802;37.404;2023-12-04T01:09:35;13.15;;;5.47;;
24619;SDS011;12763;55.802;37.404;2023-12-04T01:12:02;12.15;;;5.30;;
24619;SDS011;12763;55.802;37.404;2023-12-04T01:14:28;7.80;;;3.40;;
24619;SDS011;12763;55.802;37.404;2023-12-04T01:16:54;16.73;;;5.00;;
24619;SDS011;12763;55.802;37.404;2023-12-04T01:19:20;16.92;;;5.82;;
24619;SDS011;12763;55.802;37.404;2023-12-04T01:21:46;9.18;;;4.63;;
24619;SDS011;12763;55.802;37.404;2023-12-04T01:24:13;14.48;;;4.82;;
24619;SDS011;12763;55.802;37.404;2023-12-04T01:26:40;10.60;;;4.00;;
24619;SDS011;12763;55.802;37.404;2023-12-04T01:29:07;12.32;;;4.25;;
24619;SDS011;12763;55.802;37.404;2023-12-04T01:31:33;12.30;;;4.82;;
24619;SDS011;12763;55.802;37.404;2023-12-04T01:33:58;15.50;;;5.60;;
24619;SDS011;12763;55.802;37.404;2023-12-04T01:36:25;8.50;;;4.13;;
24619;SDS011;12763;55.802;37.404;2023-12-04T01:38:51;14.40;;;5.22;;
24619;SDS011;12763;55.802;37.404;2023-12-04T01:41:17;15.65;;;4.78;;
24619;SDS011;12763;55.802;37.404;2023-12-04T01:43:43;8.80;;;4.43;;
24619;SDS011;12763;55.802;37.404;2023-12-04T01:46:09;10.82;;;4.85;;
24619;SDS011;12763;55.802;37.404;2023-12-04T01:48:35;15.85;;;4.82;;
24619;SDS011;12763;55.802;37.404;2023-12-04T01:51:03;16.92;;;6.13;;
24619;SDS011;12763;55.802;37.404;2023-12-04T01:53:34;9.95;;;4.00;;
24619;SDS011;12763;55.802;37.404;2023-12-04T01:56:02;12.75;;;5.18;;
24619;SDS011;12763;55.802;37.404;2023-12-04T01:58:28;14.38;;;6.32;;
24619;SDS011;12763;55.802;37.404;2023-12-04T02:00:54;16.15;;;5.95;;
24619;SDS011;12763;55.802;37.404;2023-12-04T02:03:20;12.15;;;5.38;;
24619;SDS011;12763;55.802;37.404;2023-12-04T02:05:47;11.75;;;5.00;;
24619;SDS011;12763;55.802;37.404;2023-12-04T02:08:13;8.85;;;3.83;;
24619;SDS011;12763;55.802;37.404;2023-12-04T02:10:40;12.15;;;4.53;;
24619;SDS011;12763;55.802;37.404;2023-12-04T02:13:06;11.85;;;5.78;;
24619;SDS011;12763;55.802;37.404;2023-12-04T02:15:33;14.07;;;5.57;;
24619;SDS011;12763;55.802;37.404;2023-12-04T02:17:59;18.27;;;7.07;;
24619;SDS011;12763;55.802;37.404;2023-12-04T02:20:34;12.82;;;5.13;;
24619;SDS011;12763;55.802;37.404;2023-12-04T02:23:01;9.85;;;4.43;;
24619;SDS011;12763;55.802;37.404;2023-12-04T02:25:28;15.23;;;6.15;;
24619;SDS011;12763;55.802;37.404;2023-12-04T02:27:56;13.88;;;5.75;;
24619;SDS011;12763;55.802;37.404;2023-12-04T02:30:25;12.43;;;5.32;;
24619;SDS011;12763;55.802;37.404;2023-12-04T02:32:54;18.52;;;6.43;;
24619;SDS011;12763;55.802;37.404;2023-12-04T02:35:21;16.27;;;6.15;;
24619;SDS011;12763;55.802;37.404;2023-12-04T02:37:48;16.00;;;6.53;;
24619;SDS011;12763;55.802;37.404;2023-12-04T02:40:14;19.33;;;6.85;;
24619;SDS011;12763;55.802;37.404;2023-12-04T02:42:41;16.63;;;5.95;;
24619;SDS011;12763;55.802;37.404;2023-12-04T02:45:07;15.23;;;6.07;;
24619;SDS011;12763;55.802;37.404;2023-12-04T02:47:33;13.77;;;5.80;;
24619;SDS011;12763;55.802;37.404;2023-12-04T02:49:59;14.70;;;4.95;;
24619;SDS011;12763;55.802;37.404;2023-12-04T02:52:25;15.63;;;6.40;;
24619;SDS011;12763;55.802;37.404;2023-12-04T02:54:51;13.52;;;6.30;;
24619;SDS011;12763;55.802;37.404;2023-12-04T02:57:17;10.38;;;5.10;;
24619;SDS011;12763;55.802;37.404;2023-12-04T02:59:43;15.80;;;5.68;;
24619;SDS011;12763;55.802;37.404;2023-12-04T03:02:09;14.32;;;5.28;;
24619;SDS011;12763;55.802;37.404;2023-12-04T03:04:35;15.48;;;4.88;;
24619;SDS011;12763;55.802;37.404;2023-12-04T03:07:01;10.70;;;4.68;;
24619;SDS011;12763;55.802;37.404;2023-12-04T03:09:27;16.08;;;5.97;;
24619;SDS011;12763;55.802;37.404;2023-12-04T03:11:53;16.23;;;5.55;;
24619;SDS011;12763;55.802;37.404;2023-12-04T03:14:19;15.82;;;7.18;;
24619;SDS011;12763;55.802;37.404;2023-12-04T03:16:45;13.68;;;5.55;;
24619;SDS011;12763;55.802;37.404;2023-12-04T03:19:11;14.32;;;4.80;;
24619;SDS011;12763;55.802;37.404;2023-12-04T03:21:37;12.82;;;5.55;;
24619;SDS011;12763;55.802;37.404;2023-12-04T03:24:03;13.05;;;7.00;;
24619;SDS011;12763;55.802;37.404;2023-12-04T03:26:29;17.55;;;7.43;;
24619;SDS011;12763;55.802;37.404;2023-12-04T03:28:55;18.90;;;6.45;;
24619;SDS011;12763;55.802;37.404;2023-12-04T03:31:21;17.55;;;6.55;;
24619;SDS011;12763;55.802;37.404;2023-12-04T03:33:48;17.15;;;6.72;;
24619;SDS011;12763;55.802;37.404;2023-12-04T03:36:14;15.38;;;6.18;;
24619;SDS011;12763;55.802;37.404;2023-12-04T03:38:40;17.95;;;6.05;;
24619;SDS011;12763;55.802;37.404;2023-12-04T03:41:13;20.10;;;4.85;;
24619;SDS011;12763;55.802;37.404;2023-12-04T03:43:40;17.60;;;6.63;;
24619;SDS011;12763;55.802;37.404;2023-12-04T03:46:06;9.65;;;3.63;;
24619;SDS011;12763;55.802;37.404;2023-12-04T03:48:32;16.23;;;6.90;;
24619;SDS011;12763;55.802;37.404;2023-12-04T03:50:58;15.10;;;6.05;;
24619;SDS011;12763;55.802;37.404;2023-12-04T03:53:28;23.48;;;7.57;;
24619;SDS011;12763;55.802;37.404;2023-12-04T03:55:54;9.27;;;5.18;;
24619;SDS011;12763;55.802;37.404;2023-12-04T03:58:24;13.48;;;5.38;;
24619;SDS011;12763;55.802;37.404;2023-12-04T04:00:49;19.50;;;7.00;;
24619;SDS011;12763;55.802;37.404;2023-12-04T04:03:15;18.52;;;7.55;;
24619;SDS011;12763;55.802;37.404;2023-12-04T04:05:41;19.20;;;7.35;;
24619;SDS011;12763;55.802;37.404;2023-12-04T04:08:07;17.27;;;6.53;;
24619;SDS011;12763;55.802;37.404;2023-12-04T04:10:34;15.13;;;6.45;;
24619;SDS011;12763;55.802;37.404;2023-12-04T04:13:00;6.22;;;2.85;;
24619;SDS011;12763;55.802;37.404;2023-12-04T04:15:26;20.52;;;8.02;;
24619;SDS011;12763;55.802;37.404;2023-12-04T04:17:52;17.52;;;7.80;;
24619;SDS011;12763;55.802;37.404;2023-12-04T04:20:19;19.23;;;7.82;;
24619;SDS011;12763;55.802;37.404;2023-12-04T04:22:47;16.50;;;7.43;;
24619;SDS011;12763;55.802;37.404;2023-12-04T04:25:14;13.75;;;6.22;;
24619;SDS011;12763;55.802;37.404;2023-12-04T04:27:40;18.85;;;8.13;;
24619;SDS011;12763;55.802;37.404;2023-12-04T04:30:07;16.00;;;6.18;;
24619;SDS011;12763;55.802;37.404;2023-12-04T04:32:34;17.35;;;7.68;;
24619;SDS011;12763;55.802;37.404;2023-12-04T04:35:00;12.85;;;6.55;;
24619;SDS011;12763;55.802;37.404;2023-12-04T04:37:30;20.95;;;7.65;;
24619;SDS011;12763;55.802;37.404;2023-12-04T04:39:56;18.80;;;8.15;;
24619;SDS011;12763;55.802;37.404;2023-12-04T04:42:22;26.17;;;9.27;;
24619;SDS011;12763;55.802;37.404;2023-12-04T04:44:48;23.25;;;8.27;;
24619;SDS011;12763;55.802;37.404;2023-12-04T04:47:14;24.40;;;8.75;;
24619;SDS011;12763;55.802;37.404;2023-12-04T04:49:40;16.48;;;7.10;;
24619;SDS011;12763;55.802;37.404;2023-12-04T04:52:07;23.98;;;8.63;;
24619;SDS011;12763;55.802;37.404;2023-12-04T04:54:33;23.42;;;8.93;;
24619;SDS011;12763;55.802;37.404;2023-12-04T04:56:59;17.83;;;7.35;;
24619;SDS011;12763;55.802;37.404;2023-12-04T04:59:25;23.58;;;7.97;;
24619;SDS011;12763;55.802;37.404;2023-12-04T05:01:56;25.65;;;9.23;;
24619;SDS011;12763;55.802;37.404;2023-12-04T05:04:22;17.55;;;7.55;;
24619;SDS011;12763;55.802;37.404;2023-12-04T05:06:48;15.55;;;6.80;;
24619;SDS011;12763;55.802;37.404;2023-12-04T05:09:14;26.73;;;8.45;;
24619;SDS011;12763;55.802;37.404;2023-12-04T05:11:40;15.70;;;5.57;;
24619;SDS011;12763;55.802;37.404;2023-12-04T05:14:06;18.90;;;7.05;;
24619;SDS011;12763;55.802;37.404;2023-12-04T05:16:32;13.45;;;5.60;;
24619;SDS011;12763;55.802;37.404;2023-12-04T05:18:58;23.70;;;9.00;;
24619;SDS011;12763;55.802;37.404;2023-12-04T05:21:24;21.05;;;7.60;;
24619;SDS011;12763;55.802;37.404;2023-12-04T05:23:50;20.27;;;8.57;;
24619;SDS011;12763;55.802;37.404;2023-12-04T05:26:16;22.90;;;7.65;;
24619;SDS011;12763;55.802;37.404;2023-12-04T05:28:42;17.80;;;7.97;;
24619;SDS011;12763;55.802;37.404;2023-12-04T05:31:08;17.17;;;6.53;;
24619;SDS011;12763;55.802;37.404;2023-12-04T05:33:34;28.20;;;9.27;;
24619;SDS011;12763;55.802;37.404;2023-12-04T05:36:00;23.85;;;8.30;;
24619;SDS011;12763;55.802;37.404;2023-12-04T05:38:26;20.52;;;8.00;;
24619;SDS011;12763;55.802;37.404;2023-12-04T05:40:52;14.88;;;4.93;;
24619;SDS011;12763;55.802;37.404;2023-12-04T05:43:20;22.60;;;7.28;;
24619;SDS011;12763;55.802;37.404;2023-12-04T05:45:46;16.92;;;5.93;;
24619;SDS011;12763;55.802;37.404;2023-12-04T05:48:15;27.40;;;9.75;;
24619;SDS011;12763;55.802;37.404;2023-12-04T05:50:41;14.55;;;6.00;;
24619;SDS011;12763;55.802;37.404;2023-12-04T05:53:07;22.63;;;8.85;;
24619;SDS011;12763;55.802;37.404;2023-12-04T05:55:33;18.58;;;6.07;;
24619;SDS011;12763;55.802;37.404;2023-12-04T05:57:59;21.70;;;7.60;;
24619;SDS011;12763;55.802;37.404;2023-12-04T06:00:25;13.18;;;5.10;;
24619;SDS011;12763;55.802;37.404;2023-12-04T06:02:51;18.23;;;7.53;;
24619;SDS011;12763;55.802;37.404;2023-12-04T06:05:17;24.00;;;9.23;;
24619;SDS011;12763;55.802;37.404;2023-12-04T06:07:43;16.45;;;5.70;;
24619;SDS011;12763;55.802;37.404;2023-12-04T06:10:09;28.10;;;8.52;;
24619;SDS011;12763;55.802;37.404;2023-12-04T06:12:35;17.02;;;6.43;;
24619;SDS011;12763;55.802;37.404;2023-12-04T06:15:01;21.77;;;8.38;;
24619;SDS011;12763;55.802;37.404;2023-12-04T06:17:32;13.43;;;6.32;;
24619;SDS011;12763;55.802;37.404;2023-12-04T06:19:58;19.17;;;7.55;;
24619;SDS011;12763;55.802;37.404;2023-12-04T06:22:24;22.30;;;8.70;;
24619;SDS011;12763;55.802;37.404;2023-12-04T06:24:50;15.88;;;6.18;;
24619;SDS011;12763;55.802;37.404;2023-12-04T06:27:17;23.38;;;7.18;;
24619;SDS011;12763;55.802;37.404;2023-12-04T06:29:46;16.80;;;6.75;;
24619;SDS011;12763;55.802;37.404;2023-12-04T06:32:13;20.25;;;7.32;;
24619;SDS011;12763;55.802;37.404;2023-12-04T06:34:39;16.63;;;6.57;;
24619;SDS011;12763;55.802;37.404;2023-12-04T06:37:09;22.88;;;9.18;;
24619;SDS011;12763;55.802;37.404;2023-12-04T06:39:36;21.60;;;9.18;;
24619;SDS011;12763;55.802;37.404;2023-12-04T06:42:04;18.63;;;7.60;;
24619;SDS011;12763;55.802;37.404;2023-12-04T06:44:34;27.38;;;9.05;;
24619;SDS011;12763;55.802;37.404;2023-12-04T06:47:00;25.15;;;8.93;;
24619;SDS011;12763;55.802;37.404;2023-12-04T06:49:29;35.83;;;10.00;;
24619;SDS011;12763;55.802;37.404;2023-12-04T06:51:58;19.30;;;7.88;;
24619;SDS011;12763;55.802;37.404;2023-12-04T06:54:24;33.30;;;9.77;;
24619;SDS011;12763;55.802;37.404;2023-12-04T06:56:50;21.55;;;8.02;;
24619;SDS011;12763;55.802;37.404;2023-12-04T06:59:19;32.83;;;9.05;;
24619;SDS011;12763;55.802;37.404;2023-12-04T07:01:45;18.00;;;8.27;;
24619;SDS011;12763;55.802;37.404;2023-12-04T07:04:11;19.05;;;7.78;;
24619;SDS011;12763;55.802;37.404;2023-12-04T07:06:40;24.08;;;7.07;;
24619;SDS011;12763;55.802;37.404;2023-12-04T07:09:07;26.25;;;9.60;;
24619;SDS011;12763;55.802;37.404;2023-12-04T07:11:34;23.08;;;7.78;;
24619;SDS011;12763;55.802;37.404;2023-12-04T07:14:00;23.92;;;8.85;;
24619;SDS011;12763;55.802;37.404;2023-12-04T07:16:26;28.80;;;9.05;;
24619;SDS011;12763;55.802;37.404;2023-12-04T07:18:52;28.10;;;10.18;;
24619;SDS011;12763;55.802;37.404;2023-12-04T07:21:18;32.67;;;10.43;;
24619;SDS011;12763;55.802;37.404;2023-12-04T07:23:44;30.17;;;9.95;;
24619;SDS011;12763;55.802;37.404;2023-12-04T07:26:10;25.90;;;9.38;;
24619;SDS011;12763;55.802;37.404;2023-12-04T07:28:36;27.48;;;9.85;;
24619;SDS011;12763;55.802;37.404;2023-12-04T07:31:02;29.02;;;9.57;;
24619;SDS011;12763;55.802;37.404;2023-12-04T07:33:28;28.00;;;9.90;;
24619;SDS011;12763;55.802;37.404;2023-12-04T07:35:54;24.65;;;9.45;;
24619;SDS011;12763;55.802;37.404;2023-12-04T07:38:21;27.67;;;9.52;;
24619;SDS011;12763;55.802;37.404;2023-12-04T07:40:47;25.63;;;9.02;;
24619;SDS011;12763;55.802;37.404;2023-12-04T07:43:13;18.58;;;5.60;;
24619;SDS011;12763;55.802;37.404;2023-12-04T07:45:40;21.90;;;8.20;;
24619;SDS011;12763;55.802;37.404;2023-12-04T07:48:07;26.88;;;8.95;;
24619;SDS011;12763;55.802;37.404;2023-12-04T07:50:33;19.98;;;7.93;;
24619;SDS011;12763;55.802;37.404;2023-12-04T07:52:59;29.15;;;11.18;;
24619;SDS011;12763;55.802;37.404;2023-12-04T07:55:25;27.75;;;9.23;;
24619;SDS011;12763;55.802;37.404;2023-12-04T07:57:52;19.98;;;7.70;;
24619;SDS011;12763;55.802;37.404;2023-12-04T08:00:18;27.83;;;9.77;;
24619;SDS011;12763;55.802;37.404;2023-12-04T08:02:44;21.13;;;8.20;;
24619;SDS011;12763;55.802;37.404;2023-12-04T08:05:12;26.50;;;9.60;;
24619;SDS011;12763;55.802;37.404;2023-12-04T08:07:38;27.80;;;9.70;;
24619;SDS011;12763;55.802;37.404;2023-12-04T08:10:06;23.10;;;8.70;;
24619;SDS011;12763;55.802;37.404;2023-12-04T08:12:33;22.88;;;8.85;;
24619;SDS011;12763;55.802;37.404;2023-12-04T08:15:03;18.05;;;7.30;;
24619;SDS011;12763;55.802;37.404;2023-12-04T08:17:33;33.30;;;10.73;;
24619;SDS011;12763;55.802;37.404;2023-12-04T08:20:00;31.90;;;11.20;;
24619;SDS011;12763;55.802;37.404;2023-12-04T08:22:27;28.27;;;10.65;;
24619;SDS011;12763;55.802;37.404;2023-12-04T08:24:53;27.73;;;9.68;;
24619;SDS011;12763;55.802;37.404;2023-12-04T08:27:19;28.65;;;10.05;;
24619;SDS011;12763;55.802;37.404;2023-12-04T08:29:45;23.45;;;9.05;;
24619;SDS011;12763;55.802;37.404;2023-12-04T08:32:11;22.65;;;9.45;;
24619;SDS011;12763;55.802;37.404;2023-12-04T08:34:37;37.75;;;11.20;;
24619;SDS011;12763;55.802;37.404;2023-12-04T08:37:03;25.10;;;9.23;;
24619;SDS011;12763;55.802;37.404;2023-12-04T08:39:29;22.73;;;9.10;;
24619;SDS011;12763;55.802;37.404;2023-12-04T08:41:55;20.98;;;9.10;;
24619;SDS011;12763;55.802;37.404;2023-12-04T08:44:21;34.35;;;10.65;;
24619;SDS011;12763;55.802;37.404;2023-12-04T08:46:47;33.63;;;11.27;;
24619;SDS011;12763;55.802;37.404;2023-12-04T08:49:14;29.85;;;10.80;;
24619;SDS011;12763;55.802;37.404;2023-12-04T08:51:40;25.55;;;9.32;;
24619;SDS011;12763;55.802;37.404;2023-12-04T08:54:06;26.63;;;8.65;;
24619;SDS011;12763;55.802;37.404;2023-12-04T08:56:33;22.45;;;7.63;;
24619;SDS011;12763;55.802;37.404;2023-12-04T08:58:59;21.60;;;8.52;;
24619;SDS011;12763;55.802;37.404;2023-12-04T09:01:25;27.65;;;9.27;;
24619;SDS011;12763;55.802;37.404;2023-12-04T09:03:51;26.50;;;7.97;;
24619;SDS011;12763;55.802;37.404;2023-12-04T09:06:18;24.33;;;8.88;;
24619;SDS011;12763;55.802;37.404;2023-12-04T09:08:44;23.63;;;8.70;;
24619;SDS011;12763;55.802;37.404;2023-12-04T09:11:11;14.25;;;6.00;;
24619;SDS011;12763;55.802;37.404;2023-12-04T09:13:37;22.48;;;8.55;;
24619;SDS011;12763;55.802;37.404;2023-12-04T09:16:04;22.45;;;7.68;;
24619;SDS011;12763;55.802;37.404;2023-12-04T09:18:31;22.45;;;9.27;;
24619;SDS011;12763;55.802;37.404;2023-12-04T09:20:58;18.23;;;8.35;;
24619;SDS011;12763;55.802;37.404;2023-12-04T09:23:24;23.92;;;8.80;;
24619;SDS011;12763;55.802;37.404;2023-12-04T09:25:51;20.30;;;6.90;;
24619;SDS011;12763;55.802;37.404;2023-12-04T09:28:17;19.33;;;7.22;;
24619;SDS011;12763;55.802;37.404;2023-12-04T09:30:43;21.88;;;8.27;;
24619;SDS011;12763;55.802;37.404;2023-12-04T09:33:09;27.25;;;9.50;;
24619;SDS011;12763;55.802;37.404;2023-12-04T09:35:35;22.08;;;7.47;;
24619;SDS011;12763;55.802;37.404;2023-12-04T09:38:02;24.23;;;8.30;;
24619;SDS011;12763;55.802;37.404;2023-12-04T09:40:28;22.13;;;8.32;;
24619;SDS011;12763;55.802;37.404;2023-12-04T09:42:54;20.90;;;7.82;;
24619;SDS011;12763;55.802;37.404;2023-12-04T09:45:21;22.48;;;9.10;;
24619;SDS011;12763;55.802;37.404;2023-12-04T09:47:49;24.13;;;8.05;;
24619;SDS011;12763;55.802;37.404;2023-12-04T09:50:16;27.13;;;8.77;;
24619;SDS011;12763;55.802;37.404;2023-12-04T09:52:51;23.90;;;9.25;;
24619;SDS011;12763;55.802;37.404;2023-12-04T09:55:18;22.02;;;8.68;;
24619;SDS011;12763;55.802;37.404;2023-12-04T09:57:45;13.38;;;5.63;;
24619;SDS011;12763;55.802;37.404;2023-12-04T10:00:15;30.50;;;9.80;;
24619;SDS011;12763;55.802;37.404;2023-12-04T10:02:41;23.38;;;7.90;;
24619;SDS011;12763;55.802;37.404;2023-12-04T10:05:09;26.40;;;9.40;;
24619;SDS011;12763;55.802;37.404;2023-12-04T10:07:35;25.70;;;9.75;;
24619;SDS011;12763;55.802;37.404;2023-12-04T10:10:04;31.13;;;10.38;;
24619;SDS011;12763;55.802;37.404;2023-12-04T10:12:32;26.40;;;8.30;;
24619;SDS011;12763;55.802;37.404;2023-12-04T10:15:06;29.98;;;10.15;;
24619;SDS011;12763;55.802;37.404;2023-12-04T10:17:36;26.95;;;9.52;;
24619;SDS011;12763;55.802;37.404;2023-12-04T10:20:08;27.13;;;10.40;;
24619;SDS011;12763;55.802;37.404;2023-12-04T10:22:38;26.35;;;9.70;;
24619;SDS011;12763;55.802;37.404;2023-12-04T10:25:13;22.88;;;8.65;;
24619;SDS011;12763;55.802;37.404;2023-12-04T10:27:41;33.83;;;12.13;;
24619;SDS011;12763;55.802;37.404;2023-12-04T10:30:07;28.23;;;9.45;;
24619;SDS011;12763;55.802;37.404;2023-12-04T10:32:37;31.42;;;11.00;;
24619;SDS011;12763;55.802;37.404;2023-12-04T10:35:05;25.40;;;9.85;;
24619;SDS011;12763;55.802;37.404;2023-12-04T10:37:35;35.13;;;9.75;;
24619;SDS011;12763;55.802;37.404;2023-12-04T10:40:03;27.15;;;8.45;;
24619;SDS011;12763;55.802;37.404;2023-12-04T10:42:30;32.17;;;10.60;;
24619;SDS011;12763;55.802;37.404;2023-12-04T10:44:57;29.30;;;8.93;;
24619;SDS011;12763;55.802;37.404;2023-12-04T10:47:23;37.78;;;11.77;;
24619;SDS011;12763;55.802;37.404;2023-12-04T10:49:50;28.02;;;10.32;;
24619;SDS011;12763;55.802;37.404;2023-12-04T10:52:17;28.45;;;11.02;;
24619;SDS011;12763;55.802;37.404;2023-12-04T10:54:50;32.53;;;10.75;;
24619;SDS011;12763;55.802;37.404;2023-12-04T10:57:20;24.08;;;7.60;;
24619;SDS011;12763;55.802;37.404;2023-12-04T10:59:51;38.38;;;11.18;;
24619;SDS011;12763;55.802;37.404;2023-12-04T11:02:25;29.70;;;10.95;;
24619;SDS011;12763;55.802;37.404;2023-12-04T11:04:54;20.55;;;9.02;;
24619;SDS011;12763;55.802;37.404;2023-12-04T11:07:29;35.10;;;10.75;;
24619;SDS011;12763;55.802;37.404;2023-12-04T11:09:58;29.45;;;11.55;;
24619;SDS011;12763;55.802;37.404;2023-12-04T11:12:26;36.25;;;11.50;;
24619;SDS011;12763;55.802;37.404;2023-12-04T11:14:56;29.95;;;10.95;;
24619;SDS011;12763;55.802;37.404;2023-12-04T11:17:31;31.48;;;9.77;;
24619;SDS011;12763;55.802;37.404;2023-12-04T11:20:03;34.58;;;11.95;;
24619;SDS011;12763;55.802;37.404;2023-12-04T11:22:37;27.75;;;10.18;;
24619;SDS011;12763;55.802;37.404;2023-12-04T11:25:06;29.65;;;9.65;;
24619;SDS011;12763;55.802;37.404;2023-12-04T11:27:34;25.52;;;10.15;;
24619;SDS011;12763;55.802;37.404;2023-12-04T11:30:01;19.42;;;8.50;;
24619;SDS011;12763;55.802;37.404;2023-12-04T11:32:30;33.33;;;11.88;;
24619;SDS011;12763;55.802;37.404;2023-12-04T11:34:58;26.20;;;9.73;;
24619;SDS011;12763;55.802;37.404;2023-12-04T11:37:25;31.73;;;10.13;;
24619;SDS011;12763;55.802;37.404;2023-12-04T11:39:52;22.88;;;8.63;;
24619;SDS011;12763;55.802;37.404;2023-12-04T11:42:19;35.60;;;11.07;;
24619;SDS011;12763;55.802;37.404;2023-12-04T11:44:48;35.10;;;10.15;;
24619;SDS011;12763;55.802;37.404;2023-12-04T11:47:15;24.90;;;8.93;;
24619;SDS011;12763;55.802;37.404;2023-12-04T11:49:41;23.90;;;9.50;;
24619;SDS011;12763;55.802;37.404;2023-12-04T11:52:07;34.40;;;10.32;;
24619;SDS011;12763;55.802;37.404;2023-12-04T11:57:25;22.70;;;9.73;;
24619;SDS011;12763;55.802;37.404;2023-12-04T12:03:01;25.17;;;8.32;;
24619;SDS011;12763;55.802;37.404;2023-12-04T12:05:32;37.28;;;10.70;;
24619;SDS011;12763;55.802;37.404;2023-12-04T12:08:01;26.13;;;9.73;;
24619;SDS011;12763;55.802;37.404;2023-12-04T12:10:28;43.97;;;10.43;;
24619;SDS011;12763;55.802;37.404;2023-12-04T12:12:56;19.77;;;7.07;;
24619;SDS011;12763;55.802;37.404;2023-12-04T12:15:22;31.40;;;9.75;;
24619;SDS011;12763;55.802;37.404;2023-12-04T12:17:49;26.98;;;11.20;;
24619;SDS011;12763;55.802;37.404;2023-12-04T12:20:15;24.75;;;8.70;;
24619;SDS011;12763;55.802;37.404;2023-12-04T12:22:41;29.67;;;9.73;;
24619;SDS011;12763;55.802;37.404;2023-12-04T12:25:10;13.05;;;6.10;;
24619;SDS011;12763;55.802;37.404;2023-12-04T12:27:37;33.17;;;10.98;;
24619;SDS011;12763;55.802;37.404;2023-12-04T12:30:04;28.83;;;10.48;;
24619;SDS011;12763;55.802;37.404;2023-12-04T12:32:32;28.02;;;11.05;;
24619;SDS011;12763;55.802;37.404;2023-12-04T12:35:01;33.45;;;10.93;;
24619;SDS011;12763;55.802;37.404;2023-12-04T12:37:30;24.38;;;10.13;;
24619;SDS011;12763;55.802;37.404;2023-12-04T12:39:57;33.75;;;11.20;;
24619;SDS011;12763;55.802;37.404;2023-12-04T12:42:24;35.75;;;10.90;;
24619;SDS011;12763;55.802;37.404;2023-12-04T12:44:51;33.17;;;11.27;;
24619;SDS011;12763;55.802;37.404;2023-12-04T12:47:19;25.00;;;10.65;;
24619;SDS011;12763;55.802;37.404;2023-12-04T12:49:45;37.20;;;11.60;;
24619;SDS011;12763;55.802;37.404;2023-12-04T12:52:11;33.38;;;10.88;;
24619;SDS011;12763;55.802;37.404;2023-12-04T12:54:38;34.08;;;11.68;;
24619;SDS011;12763;55.802;37.404;2023-12-04T12:57:05;31.85;;;12.15;;
24619;SDS011;12763;55.802;37.404;2023-12-04T12:59:32;25.73;;;8.23;;
24619;SDS011;12763;55.802;37.404;2023-12-04T13:01:59;25.50;;;8.93;;
24619;SDS011;12763;55.802;37.404;2023-12-04T13:04:35;35.72;;;10.77;;
24619;SDS011;12763;55.802;37.404;2023-12-04T13:07:05;29.35;;;10.10;;
24619;SDS011;12763;55.802;37.404;2023-12-04T13:09:35;30.50;;;11.23;;
24619;SDS011;12763;55.802;37.404;2023-12-04T13:12:02;29.20;;;10.30;;
24619;SDS011;12763;55.802;37.404;2023-12-04T13:14:35;23.27;;;8.80;;
24619;SDS011;12763;55.802;37.404;2023-12-04T13:17:02;20.95;;;8.55;;
24619;SDS011;12763;55.802;37.404;2023-12-04T13:19:29;42.70;;;13.00;;
24619;SDS011;12763;55.802;37.404;2023-12-04T13:21:57;30.80;;;10.05;;
24619;SDS011;12763;55.802;37.404;2023-12-04T13:24:23;26.58;;;9.07;;
24619;SDS011;12763;55.802;37.404;2023-12-04T13:26:49;39.63;;;11.38;;
24619;SDS011;12763;55.802;37.404;2023-12-04T13:29:15;29.15;;;11.00;;
24619;SDS011;12763;55.802;37.404;2023-12-04T13:31:42;32.83;;;10.60;;
24619;SDS011;12763;55.802;37.404;2023-12-04T13:34:08;35.05;;;10.60;;
24619;SDS011;12763;55.802;37.404;2023-12-04T13:36:36;33.03;;;10.63;;
24619;SDS011;12763;55.802;37.404;2023-12-04T13:39:02;27.90;;;10.18;;
24619;SDS011;12763;55.802;37.404;2023-12-04T13:41:33;24.35;;;9.10;;
24619;SDS011;12763;55.802;37.404;2023-12-04T13:44:17;29.38;;;9.57;;
24619;SDS011;12763;55.802;37.404;2023-12-04T13:46:44;26.13;;;9.57;;
24619;SDS011;12763;55.802;37.404;2023-12-04T13:49:10;34.45;;;10.30;;
24619;SDS011;12763;55.802;37.404;2023-12-04T13:51:36;32.70;;;10.70;;
24619;SDS011;12763;55.802;37.404;2023-12-04T13:54:05;25.65;;;10.30;;
24619;SDS011;12763;55.802;37.404;2023-12-04T13:56:45;24.90;;;9.30;;
24619;SDS011;12763;55.802;37.404;2023-12-04T13:59:20;31.05;;;10.82;;
24619;SDS011;12763;55.802;37.404;2023-12-04T14:01:48;33.53;;;9.70;;
24619;SDS011;12763;55.802;37.404;2023-12-04T14:04:19;31.20;;;11.60;;
24619;SDS011;12763;55.802;37.404;2023-12-04T14:06:49;28.58;;;8.85;;
24619;SDS011;12763;55.802;37.404;2023-12-04T14:09:15;30.02;;;11.20;;
24619;SDS011;12763;55.802;37.404;2023-12-04T14:11:42;31.80;;;10.25;;
24619;SDS011;12763;55.802;37.404;2023-12-04T14:14:12;31.80;;;11.40;;
24619;SDS011;12763;55.802;37.404;2023-12-04T14:16:38;29.88;;;10.68;;
24619;SDS011;12763;55.802;37.404;2023-12-04T14:19:06;35.38;;;10.55;;
24619;SDS011;12763;55.802;37.404;2023-12-04T14:21:32;28.20;;;10.25;;
24619;SDS011;12763;55.802;37.404;2023-12-04T14:23:58;35.60;;;11.10;;